Dades meteomassalio
Diari Summary for Maig 28, 2017 Units:  English    Metric   Both
« Previous Day
Next Day »
Diari Semanal Mensual Anual Personalitzat
  Maxima: Minima: Mijana:
Temperatura: TemperatureC °F 13.5 °F 21.9 °F
Rosada: DewpointC °F 11.6 °F 13.8 °F
Humitat: Humidity % 39 % 63 %
Velocitat del vent: WindSpeedKMH mph 0.0 mph 11.1 mph
Racha vent: WindSpeedGustKMH mph - -
Vent:- - ESE
Pressio: PressurehPa in 1014.8 in -
Pluja: 0.0 in    
Historical Graphs
 
 
Tabular Data for Maig 28, 2017
Time Temperature Dew Point Pressure Wind Wind Speed Wind Gust Humidity Rainfall Rate (Hourly) solar Conditions
TemperatureC °F DewpointC °F PressurehPa in Calm     Humidity % HourlyPrecipMM in SolarRadiationWatts/m^2 W/m2 Conditions
00:04 19.5 °F 15.2 °F 1016.8 in Calm     76 % 0.0 in 0.0 W/m2 CLR
00:09 19.5 °F 15.2 °F 1016.8 in Calm     76 % 0.0 in 0.0 W/m2 CLR
00:14 19.4 °F 15.1 °F 1016.8 in Calm     76 % 0.0 in 0.0 W/m2 CLR
00:19 19.4 °F 15.3 °F 1017.2 in Calm     77 % 0.0 in 0.0 W/m2 CLR
00:24 19.3 °F 15.4 °F 1017.2 in Calm     78 % 0.0 in 0.0 W/m2 CLR
00:29 19.3 °F 15.4 °F 1017.2 in Calm     78 % 0.0 in 0.0 W/m2 CLR
00:34 19.2 °F 15.3 °F 1017.2 in Calm     78 % 0.0 in 0.0 W/m2 CLR
00:39 19.2 °F 15.4 °F 1017.2 in Calm     79 % 0.0 in 0.0 W/m2 CLR
00:44 19.1 °F 15.3 °F 1017.2 in Calm     79 % 0.0 in 0.0 W/m2 CLR
00:49 19.0 °F 15.3 °F 1017.2 in Calm     79 % 0.0 in 0.0 W/m2 CLR
00:54 18.9 °F 15.2 °F 1017.2 in Calm     79 % 0.0 in 0.0 W/m2 CLR
00:59 18.8 °F 15.1 °F 1017.2 in Calm     79 % 0.0 in 0.0 W/m2 CLR
01:04 18.6 °F 14.9 °F 1017.2 in Calm     79 % 0.0 in 0.0 W/m2 CLR
01:09 18.5 °F 15.0 °F 1017.2 in Calm     80 % 0.0 in 0.0 W/m2 CLR
01:14 18.2 °F 14.7 °F 1017.2 in Calm     80 % 0.0 in 0.0 W/m2 CLR
01:19 18.2 °F 15.1 °F 1017.2 in Calm     82 % 0.0 in 0.0 W/m2 CLR
01:24 18.3 °F 15.2 °F 1017.2 in Calm     82 % 0.0 in 0.0 W/m2 CLR
01:29 18.6 °F 15.4 °F 1017.2 in ESE 5.6 mph 5.6 mph 82 % 0.0 in 0.0 W/m2 CLR
01:34 18.7 °F 15.3 °F 1017.2 in ESE 1.9 mph 1.9 mph 81 % 0.0 in 0.0 W/m2 CLR
01:39 18.7 °F 15.4 °F 1017.2 in Calm     81 % 0.0 in 0.0 W/m2 CLR
01:44 18.7 °F 15.3 °F 1017.2 in Calm     81 % 0.0 in 0.0 W/m2 CLR
01:49 18.6 °F 15.1 °F 1017.2 in Calm     80 % 0.0 in 0.0 W/m2 CLR
01:54 18.4 °F 14.9 °F 1017.2 in Calm     80 % 0.0 in 0.0 W/m2 CLR
01:59 18.3 °F 14.8 °F 1017.2 in Calm     80 % 0.0 in 0.0 W/m2 CLR
02:04 18.1 °F 14.6 °F 1016.8 in Calm     80 % 0.0 in 0.0 W/m2 CLR
02:09 17.8 °F 14.3 °F 1016.8 in Calm     80 % 0.0 in 0.0 W/m2 CLR
02:14 17.8 °F 14.7 °F 1016.8 in Calm     82 % 0.0 in 0.0 W/m2 CLR
02:19 17.8 °F 14.7 °F 1016.8 in Calm     82 % 0.0 in 0.0 W/m2 CLR
02:24 17.9 °F 14.8 °F 1016.8 in Calm     82 % 0.0 in 0.0 W/m2 CLR
02:29 17.8 °F 14.7 °F 1016.8 in Calm     82 % 0.0 in 0.0 W/m2 CLR
02:34 17.8 °F 14.7 °F 1016.8 in Calm     82 % 0.0 in 0.0 W/m2 CLR
02:39 17.8 °F 14.7 °F 1016.8 in Calm     82 % 0.0 in 0.0 W/m2 CLR
02:44 17.8 °F 14.7 °F 1016.8 in Calm     82 % 0.0 in 0.0 W/m2 CLR
02:49 17.8 °F 14.5 °F 1016.8 in Calm     81 % 0.0 in 0.0 W/m2 CLR
02:54 17.5 °F 14.0 °F 1016.8 in Calm     80 % 0.0 in 0.0 W/m2 CLR
02:59 17.2 °F 13.9 °F 1016.8 in Calm     81 % 0.0 in 0.0 W/m2 CLR
03:04 17.1 °F 13.9 °F 1016.8 in Calm     82 % 0.0 in 0.0 W/m2 CLR
03:09 16.9 °F 13.8 °F 1016.8 in Calm     82 % 0.0 in 0.0 W/m2 CLR
03:14 16.8 °F 13.9 °F 1016.8 in Calm     83 % 0.0 in 0.0 W/m2 CLR
03:19 16.7 °F 13.6 °F 1016.8 in Calm     82 % 0.0 in 0.0 W/m2 CLR
03:24 16.4 °F 13.2 °F 1016.8 in Calm     81 % 0.0 in 0.0 W/m2 CLR
03:30 16.3 °F 13.2 °F 1016.8 in Calm     82 % 0.0 in 0.0 W/m2 CLR
03:35 16.2 °F 13.3 °F 1016.8 in Calm     83 % 0.0 in 0.0 W/m2 CLR
03:40 16.1 °F 13.1 °F 1016.8 in Calm     82 % 0.0 in 0.0 W/m2 CLR
03:45 16.1 °F 13.2 °F 1016.8 in Calm     83 % 0.0 in 0.0 W/m2 CLR
03:50 15.9 °F 13.0 °F 1016.8 in Calm     83 % 0.0 in 0.0 W/m2 CLR
03:55 15.8 °F 12.9 °F 1016.8 in Calm     83 % 0.0 in 0.0 W/m2 CLR
04:05 15.5 °F 12.6 °F 1016.8 in Calm     83 % 0.0 in 0.0 W/m2 CLR
04:10 15.4 °F 12.8 °F 1016.8 in Calm     84 % 0.0 in 0.0 W/m2 CLR
04:15 15.4 °F 12.7 °F 1016.8 in Calm     84 % 0.0 in 0.0 W/m2 CLR
04:20 15.4 °F 12.7 °F 1016.8 in Calm     84 % 0.0 in 0.0 W/m2 CLR
04:25 15.3 °F 12.8 °F 1016.8 in Calm     85 % 0.0 in 0.0 W/m2 CLR
04:30 15.3 °F 12.8 °F 1016.8 in Calm     85 % 0.0 in 0.0 W/m2 CLR
04:35 15.2 °F 12.7 °F 1016.8 in Calm     85 % 0.0 in 0.0 W/m2 CLR
04:40 15.1 °F 12.8 °F 1016.8 in Calm     86 % 0.0 in 0.0 W/m2 CLR
04:45 15.2 °F 12.8 °F 1016.8 in Calm     86 % 0.0 in 0.0 W/m2 CLR
04:46 15.2 °F 12.8 °F 1016.8 in Calm     86 % 0.0 in 0.0 W/m2 CLR
04:51 15.1 °F 12.8 °F 1016.8 in Calm     86 % 0.0 in 0.0 W/m2 CLR
04:56 15.0 °F 12.5 °F 1016.8 in Calm     85 % 0.0 in 0.0 W/m2 CLR
05:01 14.9 °F 12.6 °F 1016.8 in Calm     86 % 0.0 in 0.0 W/m2 CLR
05:06 14.9 °F 12.8 °F 1016.8 in Calm     87 % 0.0 in 0.0 W/m2 CLR
05:11 14.8 °F 12.5 °F 1016.8 in Calm     86 % 0.0 in 0.0 W/m2 CLR
05:16 14.7 °F 12.3 °F 1016.8 in Calm     86 % 0.0 in 0.0 W/m2 CLR
05:21 14.6 °F 12.4 °F 1016.8 in Calm     87 % 0.0 in 0.0 W/m2 CLR
05:26 14.6 °F 12.4 °F 1016.8 in Calm     87 % 0.0 in 0.0 W/m2 CLR
05:31 14.5 °F 12.3 °F 1016.8 in Calm     87 % 0.0 in 0.0 W/m2 CLR
05:36 14.4 °F 12.3 °F 1016.8 in Calm     87 % 0.0 in 0.0 W/m2 CLR
05:41 14.4 °F 12.3 °F 1017.2 in Calm     87 % 0.0 in 0.0 W/m2 CLR
05:46 14.4 °F 12.4 °F 1017.2 in Calm     88 % 0.0 in 0.0 W/m2 CLR
05:51 14.4 °F 12.4 °F 1017.2 in Calm     88 % 0.0 in 0.0 W/m2 CLR
05:56 14.3 °F 12.2 °F 1017.2 in Calm     87 % 0.0 in 0.0 W/m2 CLR
06:01 14.2 °F 12.1 °F 1017.2 in Calm     87 % 0.0 in 0.0 W/m2 CLR
06:06 14.1 °F 11.9 °F 1017.2 in Calm     87 % 0.0 in 0.0 W/m2 CLR
06:11 13.9 °F 11.8 °F 1017.2 in Calm     87 % 0.0 in 0.0 W/m2 CLR
06:16 13.8 °F 11.7 °F 1017.2 in Calm     87 % 0.0 in 0.0 W/m2 CLR
06:21 13.7 °F 11.6 °F 1017.2 in Calm     87 % 0.0 in 0.0 W/m2 OVC
06:26 13.7 °F 11.6 °F 1017.5 in Calm     87 % 0.0 in 5.0 W/m2 OVC
06:31 13.6 °F 11.7 °F 1017.5 in Calm     88 % 0.0 in 7.0 W/m2 OVC
06:33 13.6 °F 11.6 °F 1017.5 in Calm     88 % 0.0 in 9.0 W/m2 OVC
06:38 13.5 °F 11.6 °F 1017.5 in Calm     88 % 0.0 in 14.0 W/m2 BKN
06:43 13.5 °F 11.6 °F 1017.5 in Calm     88 % 0.0 in 25.0 W/m2 BKN
06:44 13.5 °F 11.6 °F 1017.5 in Calm     88 % 0.0 in 26.0 W/m2 BKN
06:49 13.5 °F 11.6 °F 1017.5 in Calm     88 % 0.0 in 32.0 W/m2 BKN
06:54 13.5 °F 11.6 °F 1017.5 in Calm     88 % 0.0 in 37.0 W/m2 BKN
06:59 13.6 °F 11.6 °F 1017.5 in Calm     88 % 0.0 in 44.0 W/m2 BKN
07:04 13.7 °F 11.7 °F 1017.5 in Calm     88 % 0.0 in 54.0 W/m2 SCT
07:09 13.7 °F 11.8 °F 1017.8 in Calm     88 % 0.0 in 65.0 W/m2 SCT
07:14 13.8 °F 11.8 °F 1017.5 in Calm     88 % 0.0 in 83.0 W/m2 FEW
07:19 13.9 °F 12.0 °F 1017.8 in Calm     88 % 0.0 in 84.0 W/m2 FEW
07:24 14.2 °F 12.2 °F 1017.8 in Calm     88 % 0.0 in 102.0 W/m2 CLR
07:34 14.6 °F 12.2 °F 1017.8 in Calm     86 % 0.0 in 121.0 W/m2 CLR
07:39 14.8 °F 12.4 °F 1017.8 in Calm     86 % 0.0 in 128.0 W/m2 CLR
07:44 15.1 °F 12.7 °F 1017.8 in Calm     86 % 0.0 in 128.0 W/m2 CLR
07:49 15.3 °F 12.8 °F 1017.8 in Calm     85 % 0.0 in 134.0 W/m2 CLR
07:54 15.5 °F 12.8 °F 1017.8 in Calm     84 % 0.0 in 132.0 W/m2 CLR
07:59 15.7 °F 13.0 °F 1017.8 in Calm     84 % 0.0 in 148.0 W/m2 CLR
08:04 16.0 °F 13.1 °F 1017.8 in Calm     83 % 0.0 in 142.0 W/m2 CLR
08:09 16.3 °F 13.2 °F 1017.8 in Calm     82 % 0.0 in 134.0 W/m2 CLR
08:14 16.5 °F 13.2 °F 1017.8 in Calm     81 % 0.0 in 165.0 W/m2 CLR
08:19 16.7 °F 13.4 °F 1017.8 in Calm     81 % 0.0 in 188.0 W/m2 CLR
08:24 17.0 °F 13.5 °F 1017.8 in Calm     80 % 0.0 in 206.0 W/m2 CLR
08:29 17.4 °F 13.9 °F 1017.8 in Calm     80 % 0.0 in 227.0 W/m2 CLR
08:34 17.9 °F 14.4 °F 1017.8 in Calm     80 % 0.0 in 287.0 W/m2 CLR
08:39 18.6 °F 14.8 °F 1017.8 in Calm     79 % 0.0 in 304.0 W/m2 CLR
08:44 19.4 °F 14.8 °F 1017.8 in Calm     75 % 0.0 in 315.0 W/m2 CLR
08:49 20.0 °F 15.0 °F 1017.8 in Calm     73 % 0.0 in 353.0 W/m2 CLR
08:51 20.1 °F 14.9 °F 1017.8 in Calm     72 % 0.0 in 360.0 W/m2 CLR
08:56 20.4 °F 15.2 °F 1017.8 in Calm     72 % 0.0 in 355.0 W/m2 CLR
09:01 20.8 °F 15.3 °F 1017.8 in Calm     71 % 0.0 in 374.0 W/m2 CLR
09:06 21.3 °F 15.3 °F 1017.8 in Calm     69 % 0.0 in 424.0 W/m2 CLR
09:11 21.7 °F 15.6 °F 1017.8 in Calm     68 % 0.0 in 394.0 W/m2 CLR
09:16 22.2 °F 15.8 °F 1017.8 in Calm     67 % 0.0 in 387.0 W/m2 CLR
09:21 22.4 °F 15.6 °F 1018.2 in Calm     65 % 0.0 in 408.0 W/m2 CLR
09:26 22.5 °F 15.8 °F 1018.2 in Calm     66 % 0.0 in 323.0 W/m2 CLR
09:31 22.5 °F 15.6 °F 1017.8 in Calm     65 % 0.0 in 388.0 W/m2 CLR
09:36 22.7 °F 16.0 °F 1017.8 in Calm     66 % 0.0 in 434.0 W/m2 CLR
09:41 22.7 °F 16.0 °F 1017.8 in East 13.0 mph 13.0 mph 66 % 0.0 in 434.0 W/m2 CLR
09:51 22.8 °F 16.2 °F 1018.2 in East 4.8 mph 4.8 mph 66 % 0.0 in 501.0 W/m2 CLR
09:56 23.1 °F 16.2 °F 1017.8 in ESE 7.4 mph 7.4 mph 65 % 0.0 in 468.0 W/m2 CLR
10:01 23.3 °F 16.1 °F 1017.8 in East 9.3 mph   64 % 0.0 in 489.0 W/m2 CLR
10:06 23.6 °F 16.3 °F 1018.2 in ENE 9.3 mph 9.3 mph 64 % 0.0 in 566.0 W/m2 CLR
10:11 23.9 °F 15.7 °F 1017.8 in ENE 9.3 mph 9.3 mph 60 % 0.0 in 557.0 W/m2 CLR
10:16 23.9 °F 15.7 °F 1017.8 in East 11.1 mph 11.1 mph 60 % 0.0 in 550.0 W/m2 CLR
10:21 24.0 °F 15.2 °F 1018.2 in ESE 14.8 mph 14.8 mph 58 % 0.0 in 436.0 W/m2 CLR
10:26 24.1 °F 15.3 °F 1017.8 in SE 14.8 mph 14.8 mph 58 % 0.0 in 677.0 W/m2 CLR
10:31 24.2 °F 15.4 °F 1018.2 in ESE 16.7 mph 16.7 mph 58 % 0.0 in 657.0 W/m2 CLR
10:36 24.3 °F 15.3 °F 1017.8 in ESE 18.5 mph 18.5 mph 57 % 0.0 in 647.0 W/m2 CLR
10:41 24.4 °F 15.1 °F 1017.8 in SE 18.5 mph 18.5 mph 56 % 0.0 in 461.0 W/m2 CLR
10:46 24.5 °F 15.4 °F 1017.8 in ESE 18.5 mph 18.5 mph 57 % 0.0 in 517.0 W/m2 CLR
10:51 24.3 °F 15.3 °F 1017.8 in East 14.8 mph 14.8 mph 57 % 0.0 in 434.0 W/m2 CLR
10:56 24.5 °F 15.4 °F 1017.8 in ESE 14.8 mph 14.8 mph 57 % 0.0 in 640.0 W/m2 CLR
11:01 24.7 °F 15.3 °F 1017.8 in SE 14.8 mph 14.8 mph 56 % 0.0 in 645.0 W/m2 CLR
11:06 24.9 °F 15.2 °F 1017.8 in ENE 18.5 mph 18.5 mph 55 % 0.0 in 596.0 W/m2 CLR
11:11 25.1 °F 15.4 °F 1017.8 in ESE 18.5 mph 18.5 mph 55 % 0.0 in 598.0 W/m2 CLR
11:16 25.1 °F 15.2 °F 1017.8 in ENE 14.8 mph 14.8 mph 54 % 0.0 in 796.0 W/m2 CLR
11:21 25.4 °F 14.8 °F 1017.8 in East 22.2 mph 22.2 mph 52 % 0.0 in 724.0 W/m2 CLR
11:26 25.6 °F 15.0 °F 1017.8 in SE 16.7 mph 16.7 mph 52 % 0.0 in 700.0 W/m2 CLR
11:31 25.7 °F 15.1 °F 1017.8 in ESE 13.0 mph 13.0 mph 52 % 0.0 in 638.0 W/m2 CLR
11:36 25.7 °F 14.8 °F 1017.8 in ESE 18.5 mph 18.5 mph 51 % 0.0 in 497.0 W/m2 CLR
11:41 25.6 °F 15.0 °F 1017.8 in ESE 20.4 mph 20.4 mph 52 % 0.0 in 606.0 W/m2 CLR
11:46 25.4 °F 14.8 °F 1017.8 in ENE 18.5 mph 18.5 mph 52 % 0.0 in 768.0 W/m2 CLR
11:51 25.3 °F 14.8 °F 1017.8 in East 22.2 mph 22.2 mph 52 % 0.0 in 796.0 W/m2 CLR
11:56 25.6 °F 14.7 °F 1017.5 in ENE 20.9 mph 20.9 mph 51 % 0.0 in 812.0 W/m2 CLR
12:01 25.7 °F 14.8 °F 1017.5 in East 22.2 mph 22.2 mph 51 % 0.0 in 830.0 W/m2 CLR
12:06 25.9 °F 14.3 °F 1017.5 in East 22.2 mph 22.2 mph 49 % 0.0 in 795.0 W/m2 CLR
12:11 25.9 °F 14.7 °F 1017.5 in ESE 18.5 mph 18.5 mph 50 % 0.0 in 819.0 W/m2 CLR
12:16 26.2 °F 14.3 °F 1017.5 in ESE 31.5 mph 31.5 mph 48 % 0.0 in 831.0 W/m2 CLR
12:21 26.1 °F 14.2 °F 1017.2 in East 27.8 mph 27.8 mph 48 % 0.0 in 840.0 W/m2 CLR
12:27 26.2 °F 14.0 °F 1017.2 in ENE 31.5 mph 31.5 mph 47 % 0.0 in 847.0 W/m2 CLR
12:32 26.4 °F 13.8 °F 1017.2 in ESE 18.5 mph 18.5 mph 46 % 0.0 in 875.0 W/m2 CLR
12:33 26.3 °F 13.8 °F 1017.2 in East 29.6 mph 29.6 mph 46 % 0.0 in 882.0 W/m2 CLR
12:38 26.6 °F 14.3 °F 1017.2 in ESE 22.2 mph 22.2 mph 47 % 0.0 in 886.0 W/m2 CLR
12:43 26.8 °F 13.8 °F 1017.2 in East 22.2 mph 22.2 mph 45 % 0.0 in 889.0 W/m2 CLR
12:48 27.1 °F 13.4 °F 1017.2 in ESE 22.2 mph 22.2 mph 43 % 0.0 in 886.0 W/m2 CLR
12:53 27.0 °F 13.7 °F 1017.2 in SE 25.9 mph 25.9 mph 44 % 0.0 in 891.0 W/m2 CLR
12:58 26.9 °F 13.3 °F 1016.8 in East 31.5 mph 31.5 mph 43 % 0.0 in 902.0 W/m2 CLR
13:03 27.1 °F 13.4 °F 1016.8 in ESE 27.8 mph 27.8 mph 43 % 0.0 in 909.0 W/m2 CLR
13:08 27.2 °F 13.5 °F 1016.8 in ESE 35.2 mph 35.2 mph 43 % 0.0 in 914.0 W/m2 CLR
13:13 27.3 °F 13.6 °F 1016.8 in SE 24.1 mph 24.1 mph 43 % 0.0 in 918.0 W/m2 CLR
13:18 27.3 °F 13.3 °F 1016.8 in East 32.2 mph 32.2 mph 42 % 0.0 in 923.0 W/m2 CLR
13:23 27.5 °F 13.4 °F 1016.8 in SE 31.5 mph 31.5 mph 42 % 0.0 in 928.0 W/m2 CLR
13:28 27.7 °F 13.7 °F 1016.8 in East 25.9 mph 25.9 mph 42 % 0.0 in 935.0 W/m2 CLR
13:33 27.8 °F 13.4 °F 1016.5 in ESE 24.1 mph 24.1 mph 41 % 0.0 in 939.0 W/m2 CLR
13:38 28.0 °F 13.5 °F 1016.5 in ESE 24.1 mph 24.1 mph 41 % 0.0 in 940.0 W/m2 CLR
13:43 27.9 °F 13.4 °F 1016.8 in ESE 31.5 mph 31.5 mph 41 % 0.0 in 947.0 W/m2 CLR
13:48 27.6 °F 13.6 °F 1016.8 in ESE 29.6 mph 29.6 mph 42 % 0.0 in 958.0 W/m2 CLR
13:53 27.7 °F 13.7 °F 1016.5 in SE 22.5 mph 22.5 mph 42 % 0.0 in 983.0 W/m2 CLR
13:58 27.8 °F 13.7 °F 1016.5 in ESE 27.8 mph 27.8 mph 42 % 0.0 in 633.0 W/m2 CLR
14:03 27.9 °F 13.4 °F 1016.5 in SE 31.5 mph 31.5 mph 41 % 0.0 in 926.0 W/m2 CLR
14:08 27.9 °F 13.4 °F 1016.1 in ESE 24.1 mph 24.1 mph 41 % 0.0 in 939.0 W/m2 CLR
14:13 28.3 °F 13.0 °F 1016.1 in ESE 37.0 mph 37.0 mph 39 % 0.0 in 925.0 W/m2 CLR
14:18 28.1 °F 13.2 °F 1016.1 in East 25.9 mph 25.9 mph 40 % 0.0 in 933.0 W/m2 CLR
14:23 27.9 °F 13.4 °F 1016.1 in SE 22.5 mph 22.5 mph 41 % 0.0 in 953.0 W/m2 CLR
14:28 28.3 °F 13.4 °F 1016.1 in ESE 22.2 mph 22.2 mph 40 % 0.0 in 949.0 W/m2 CLR
14:33 28.4 °F 13.5 °F 1016.1 in SE 27.8 mph 27.8 mph 40 % 0.0 in 914.0 W/m2 CLR
14:38 28.1 °F 13.2 °F 1016.1 in SE 31.5 mph 31.5 mph 40 % 0.0 in 914.0 W/m2 CLR
14:39 28.1 °F 13.2 °F 1016.1 in ESE 32.2 mph 32.2 mph 40 % 0.0 in 907.0 W/m2 CLR
14:44 27.9 °F 13.4 °F 1016.1 in East 25.9 mph 25.9 mph 41 % 0.0 in 907.0 W/m2 CLR
14:49 27.8 °F 13.3 °F 1016.1 in SE 25.9 mph 25.9 mph 41 % 0.0 in 904.0 W/m2 CLR
14:54 27.9 °F 13.4 °F 1015.8 in East 29.6 mph 29.6 mph 41 % 0.0 in 902.0 W/m2 CLR
14:59 27.8 °F 13.4 °F 1015.8 in SE 31.5 mph 31.5 mph 41 % 0.0 in 888.0 W/m2 CLR
15:04 28.0 °F 13.5 °F 1016.1 in SE 22.2 mph 22.2 mph 41 % 0.0 in 875.0 W/m2 CLR
15:09 28.1 °F 13.2 °F 1015.8 in ESE 24.1 mph 24.1 mph 40 % 0.0 in 886.0 W/m2 CLR
15:14 28.2 °F 13.3 °F 1015.8 in SE 29.6 mph 29.6 mph 40 % 0.0 in 868.0 W/m2 CLR
15:19 28.2 °F 13.3 °F 1015.8 in ESE 25.9 mph 25.9 mph 40 % 0.0 in 868.0 W/m2 CLR
15:24 28.2 °F 13.3 °F 1015.8 in ESE 24.1 mph 24.1 mph 40 % 0.0 in 886.0 W/m2 CLR
15:29 28.2 °F 12.9 °F 1015.8 in ESE 37.0 mph 37.0 mph 39 % 0.0 in 872.0 W/m2 CLR
15:34 28.1 °F 13.2 °F 1015.8 in East 18.5 mph 18.5 mph 40 % 0.0 in 868.0 W/m2 CLR
15:39 28.3 °F 13.4 °F 1015.8 in East 22.2 mph 22.2 mph 40 % 0.0 in 863.0 W/m2 CLR
15:44 28.2 °F 13.3 °F 1015.8 in ESE 20.9 mph 20.9 mph 40 % 0.0 in 867.0 W/m2 CLR
15:49 28.2 °F 12.9 °F 1015.8 in East 33.3 mph 33.3 mph 39 % 0.0 in 798.0 W/m2 CLR
15:54 28.3 °F 13.1 °F 1015.5 in East 31.5 mph 31.5 mph 39 % 0.0 in 870.0 W/m2 CLR
15:59 28.2 °F 13.3 °F 1015.5 in SE 31.5 mph 31.5 mph 40 % 0.0 in 856.0 W/m2 CLR
16:04 28.3 °F 13.4 °F 1015.5 in SE 24.1 mph 24.1 mph 40 % 0.0 in 830.0 W/m2 CLR
16:09 28.5 °F 13.6 °F 1015.5 in East 25.9 mph 25.9 mph 40 % 0.0 in 789.0 W/m2 CLR
16:14 28.4 °F 13.5 °F 1015.5 in ESE 25.9 mph 25.9 mph 40 % 0.0 in 777.0 W/m2 CLR
16:19 28.2 °F 13.7 °F 1015.5 in ESE 27.8 mph 27.8 mph 41 % 0.0 in 772.0 W/m2 CLR
16:24 28.1 °F 13.6 °F 1015.5 in ESE 33.3 mph 33.3 mph 41 % 0.0 in 786.0 W/m2 CLR
16:29 28.1 °F 14.3 °F 1015.5 in SE 31.5 mph 31.5 mph 43 % 0.0 in 793.0 W/m2 CLR
16:34 28.4 °F 14.3 °F 1015.5 in SE 27.8 mph 27.8 mph 42 % 0.0 in 791.0 W/m2 CLR
16:39 28.7 °F 14.6 °F 1015.5 in ESE 20.4 mph 20.4 mph 42 % 0.0 in 747.0 W/m2 CLR
16:44 28.4 °F 14.6 °F 1015.5 in SE 31.5 mph 31.5 mph 43 % 0.0 in 563.0 W/m2 CLR
16:49 28.0 °F 14.3 °F 1015.5 in SSE 33.3 mph 33.3 mph 43 % 0.0 in 610.0 W/m2 CLR
16:54 28.0 °F 14.3 °F 1015.5 in SE 27.8 mph 27.8 mph 43 % 0.0 in 612.0 W/m2 CLR
16:59 27.9 °F 14.5 °F 1015.5 in SSE 31.5 mph 31.5 mph 44 % 0.0 in 568.0 W/m2 CLR
17:04 27.9 °F 14.8 °F 1015.5 in SE 27.8 mph 27.8 mph 45 % 0.0 in 613.0 W/m2 CLR
17:09 27.7 °F 14.7 °F 1015.5 in ESE 24.1 mph 24.1 mph 45 % 0.0 in 524.0 W/m2 CLR
17:14 27.4 °F 14.4 °F 1015.5 in ESE 27.8 mph 27.8 mph 45 % 0.0 in 404.0 W/m2 CLR
17:19 27.2 °F 14.6 °F 1015.5 in SE 25.9 mph 25.9 mph 46 % 0.0 in 443.0 W/m2 CLR
17:24 27.3 °F 15.0 °F 1015.5 in SE 25.7 mph 25.7 mph 47 % 0.0 in 519.0 W/m2 CLR
17:30 27.3 °F 15.1 °F 1015.5 in SSE 25.9 mph 25.9 mph 47 % 0.0 in 410.0 W/m2 CLR
17:35 27.1 °F 14.8 °F 1015.5 in East 29.6 mph 29.6 mph 47 % 0.0 in 285.0 W/m2 CLR
17:36 27.1 °F 14.8 °F 1015.5 in ESE 31.5 mph 31.5 mph 47 % 0.0 in 281.0 W/m2 CLR
17:41 26.8 °F 14.8 °F 1015.1 in SSE 25.9 mph 25.9 mph 48 % 0.0 in 424.0 W/m2 CLR
17:46 26.8 °F 14.9 °F 1015.1 in SE 27.8 mph 27.8 mph 48 % 0.0 in 341.0 W/m2 CLR
17:51 26.6 °F 14.9 °F 1015.1 in SE 25.9 mph 25.9 mph 49 % 0.0 in 292.0 W/m2 CLR
17:56 26.4 °F 14.8 °F 1015.1 in SE 18.5 mph 18.5 mph 49 % 0.0 in 292.0 W/m2 CLR
18:01 26.6 °F 14.9 °F 1015.1 in SE 25.9 mph 25.9 mph 49 % 0.0 in 313.0 W/m2 CLR
18:06 26.4 °F 14.8 °F 1015.1 in SE 24.1 mph 24.1 mph 49 % 0.0 in 497.0 W/m2 CLR
18:11 26.6 °F 14.9 °F 1015.1 in SE 29.6 mph 29.6 mph 49 % 0.0 in 580.0 W/m2 CLR
18:16 26.7 °F 14.8 °F 1015.1 in SE 29.6 mph 29.6 mph 48 % 0.0 in 564.0 W/m2 CLR
18:21 26.6 °F 15.0 °F 1015.1 in SE 27.8 mph 27.8 mph 49 % 0.0 in 541.0 W/m2 CLR
18:26 26.7 °F 14.8 °F 1015.1 in SE 29.6 mph 29.6 mph 48 % 0.0 in 506.0 W/m2 CLR
18:31 26.6 °F 14.7 °F 1014.8 in SSE 27.8 mph 27.8 mph 48 % 0.0 in 471.0 W/m2 CLR
18:36 26.7 °F 14.1 °F 1014.8 in SSE 27.8 mph 27.8 mph 46 % 0.0 in 281.0 W/m2 CLR
18:41 26.5 °F 14.3 °F 1015.1 in SE 27.8 mph 27.8 mph 47 % 0.0 in 200.0 W/m2 CLR
18:46 26.2 °F 14.0 °F 1014.8 in SE 25.9 mph 25.9 mph 47 % 0.0 in 162.0 W/m2 CLR
18:51 26.1 °F 14.2 °F 1014.8 in SSE 20.9 mph 20.9 mph 48 % 0.0 in 221.0 W/m2 CLR
18:56 26.1 °F 13.9 °F 1014.8 in SSE 19.3 mph 19.3 mph 47 % 0.0 in 339.0 W/m2 CLR
19:01 26.0 °F 13.8 °F 1014.8 in SSE 25.7 mph 25.7 mph 47 % 0.0 in 311.0 W/m2 CLR
19:06 26.1 °F 13.9 °F 1014.8 in SSE 24.1 mph 24.1 mph 47 % 0.0 in 383.0 W/m2 CLR
19:11 26.0 °F 14.4 °F 1014.8 in ESE 18.5 mph 18.5 mph 49 % 0.0 in 388.0 W/m2 CLR
19:16 25.7 °F 14.2 °F 1014.8 in SE 24.1 mph 24.1 mph 49 % 0.0 in 381.0 W/m2 CLR
19:21 25.8 °F 14.3 °F 1014.8 in ESE 13.0 mph 13.0 mph 49 % 0.0 in 336.0 W/m2 CLR
19:26 25.7 °F 14.4 °F 1014.8 in SE 18.5 mph 18.5 mph 50 % 0.0 in 237.0 W/m2 CLR
19:31 25.5 °F 14.3 °F 1014.8 in ESE 16.7 mph 16.7 mph 50 % 0.0 in 207.0 W/m2 CLR
19:36 25.3 °F 14.1 °F 1014.8 in ESE 18.5 mph 18.5 mph 50 % 0.0 in 141.0 W/m2 CLR
19:41 25.1 °F 13.9 °F 1014.8 in ESE 20.4 mph 20.4 mph 50 % 0.0 in 121.0 W/m2 CLR
19:46 25.0 °F 13.8 °F 1014.8 in SE 27.8 mph 27.8 mph 50 % 0.0 in 128.0 W/m2 CLR
19:51 24.9 °F 13.8 °F 1014.8 in SE 18.5 mph 18.5 mph 50 % 0.0 in 90.0 W/m2 CLR
19:56 24.9 °F 14.1 °F 1014.8 in SE 20.9 mph 20.9 mph 51 % 0.0 in 72.0 W/m2 CLR
20:01 24.7 °F 13.9 °F 1014.8 in ESE 19.3 mph 19.3 mph 51 % 0.0 in 69.0 W/m2 FEW
20:06 24.6 °F 13.7 °F 1014.8 in ESE 20.4 mph 20.4 mph 51 % 0.0 in 58.0 W/m2 FEW
20:11 24.4 °F 13.7 °F 1014.8 in SE 18.5 mph 18.5 mph 51 % 0.0 in 51.0 W/m2 SCT
20:16 24.4 °F 13.6 °F 1014.8 in SE 18.5 mph 18.5 mph 51 % 0.0 in 47.0 W/m2 SCT
20:21 24.3 °F 13.5 °F 1015.1 in SE 18.5 mph 18.5 mph 51 % 0.0 in 44.0 W/m2 SCT
20:26 24.1 °F 13.3 °F 1015.1 in SE 18.5 mph 18.5 mph 51 % 0.0 in 40.0 W/m2 BKN
20:31 24.0 °F 13.2 °F 1015.1 in SE 18.5 mph 18.5 mph 51 % 0.0 in 37.0 W/m2 BKN
20:36 23.9 °F 13.2 °F 1015.1 in ESE 11.1 mph 11.1 mph 51 % 0.0 in 33.0 W/m2 BKN
20:41 23.8 °F 13.1 °F 1015.1 in SSE 14.8 mph 14.8 mph 51 % 0.0 in 32.0 W/m2 BKN
20:46 23.7 °F 13.2 °F 1015.1 in SE 7.4 mph 7.4 mph 52 % 0.0 in 28.0 W/m2 BKN
20:51 23.6 °F 13.2 °F 1015.1 in SE 9.3 mph 9.3 mph 52 % 0.0 in 23.0 W/m2 BKN
20:56 23.5 °F 13.1 °F 1015.1 in SE 12.9 mph 12.9 mph 52 % 0.0 in 19.0 W/m2 BKN
21:01 23.4 °F 13.3 °F 1015.5 in SSE 5.6 mph 5.6 mph 53 % 0.0 in 14.0 W/m2 BKN
21:06 23.3 °F 13.2 °F 1015.1 in ESE 4.8 mph 4.8 mph 53 % 0.0 in 11.0 W/m2 BKN
21:11 23.1 °F 13.3 °F 1015.5 in Calm     54 % 0.0 in 5.0 W/m2 BKN
21:16 23.0 °F 13.2 °F 1015.5 in Calm     54 % 0.0 in 0.0 W/m2 OVC
21:21 22.9 °F 13.4 °F 1015.5 in Calm     55 % 0.0 in 0.0 W/m2 OVC
21:26 22.7 °F 13.2 °F 1015.5 in Calm     55 % 0.0 in 0.0 W/m2 OVC
21:31 22.6 °F 13.4 °F 1015.5 in Calm     56 % 0.0 in 0.0 W/m2 OVC
21:36 22.4 °F 13.2 °F 1015.5 in Calm     56 % 0.0 in 0.0 W/m2 CLR
21:41 22.3 °F 13.3 °F 1015.5 in Calm     57 % 0.0 in 0.0 W/m2 CLR
21:46 22.1 °F 13.2 °F 1015.5 in Calm     57 % 0.0 in 0.0 W/m2 CLR
21:51 22.0 °F 13.3 °F 1015.5 in Calm     58 % 0.0 in 0.0 W/m2 CLR
21:56 21.8 °F 13.2 °F 1015.5 in Calm     58 % 0.0 in 0.0 W/m2 CLR
22:01 21.8 °F 13.2 °F 1015.5 in Calm     58 % 0.0 in 0.0 W/m2 CLR
22:06 21.7 °F 13.1 °F 1015.8 in Calm     58 % 0.0 in 0.0 W/m2 CLR
22:11 21.7 °F 13.1 °F 1015.8 in Calm     58 % 0.0 in 0.0 W/m2 CLR
22:16 21.7 °F 13.1 °F 1015.8 in Calm     58 % 0.0 in 0.0 W/m2 CLR
22:21 21.6 °F 13.0 °F 1015.8 in Calm     58 % 0.0 in 0.0 W/m2 CLR
22:26 21.5 °F 12.9 °F 1015.8 in Calm     58 % 0.0 in 0.0 W/m2 CLR
22:31 21.4 °F 13.1 °F 1015.8 in Calm     59 % 0.0 in 0.0 W/m2 CLR
22:36 21.3 °F 12.9 °F 1015.8 in Calm     59 % 0.0 in 0.0 W/m2 CLR
22:41 21.2 °F 12.9 °F 1016.1 in Calm     59 % 0.0 in 0.0 W/m2 CLR
22:47 21.1 °F 12.7 °F 1016.1 in Calm     59 % 0.0 in 0.0 W/m2 CLR
22:52 21.0 °F 12.9 °F 1015.8 in Calm     60 % 0.0 in 0.0 W/m2 CLR
22:57 20.8 °F 13.1 °F 1015.8 in SE 3.7 mph   61 % 0.0 in 0.0 W/m2 CLR
23:02 20.7 °F 12.9 °F 1015.8 in SSE 3.7 mph   61 % 0.0 in 0.0 W/m2 CLR
23:07 20.6 °F 13.0 °F 1016.1 in Calm     62 % 0.0 in 0.0 W/m2 CLR
23:12 20.4 °F 12.9 °F 1016.1 in Calm     62 % 0.0 in 0.0 W/m2 CLR
23:17 20.4 °F 13.1 °F 1016.1 in Calm     63 % 0.0 in 0.0 W/m2 CLR
23:22 20.3 °F 13.3 °F 1016.1 in Calm     64 % 0.0 in 0.0 W/m2 CLR
23:27 20.3 °F 13.3 °F 1016.1 in ESE 5.6 mph 5.6 mph 64 % 0.0 in 0.0 W/m2 CLR
23:37 20.3 °F 13.6 °F 1016.5 in Calm     65 % 0.0 in 0.0 W/m2 CLR
23:42 20.3 °F 13.5 °F 1016.5 in Calm     65 % 0.0 in 0.0 W/m2 CLR
23:47 20.2 °F 13.7 °F 1016.5 in Calm     66 % 0.0 in 0.0 W/m2 CLR
23:52 20.1 °F 13.6 °F 1016.5 in Calm     66 % 0.0 in 0.0 W/m2 CLR
23:57 20.1 °F 13.5 °F 1016.1 in Calm     66 % 0.0 in 0.0 W/m2 CLR
Lo Temps de Massalio
Compliments of Weather Underground - 1.25 mb